createdAt,value
2022-12-09T00:01:22.024Z,18.27
2022-12-09T00:03:24.458Z,19.70
2022-12-09T00:05:28.885Z,23.83
2022-12-09T00:07:31.355Z,25.87
2022-12-09T00:09:33.893Z,25.30
2022-12-09T00:11:36.089Z,24.07
2022-12-09T00:13:38.472Z,22.73
2022-12-09T00:15:42.663Z,22.67
2022-12-09T00:17:45.204Z,21.50
2022-12-09T00:19:47.406Z,25.50
2022-12-09T00:21:49.398Z,21.73
2022-12-09T00:23:53.147Z,20.13
2022-12-09T00:25:58.483Z,17.03
2022-12-09T00:28:00.625Z,15.83
2022-12-09T00:30:03.172Z,15.90
2022-12-09T00:32:05.729Z,17.40
2022-12-09T00:34:11.057Z,25.47
2022-12-09T00:36:18.427Z,77.97
2022-12-09T00:38:20.407Z,108.50
2022-12-09T00:40:22.602Z,90.03
2022-12-09T00:42:25.207Z,57.90
2022-12-09T00:44:28.369Z,74.43
2022-12-09T00:46:30.612Z,69.57
2022-12-09T00:48:34.887Z,79.07
2022-12-09T00:50:37.013Z,50.27
2022-12-09T00:52:39.350Z,77.57
2022-12-09T00:54:42.882Z,44.73
2022-12-09T00:56:45.411Z,39.53
2022-12-09T00:58:48.074Z,50.47
2022-12-09T01:00:51.200Z,38.97
2022-12-09T01:02:53.308Z,34.37
2022-12-09T01:04:56.555Z,33.60
2022-12-09T01:06:59.178Z,44.90
2022-12-09T01:09:04.158Z,56.07
2022-12-09T01:11:11.876Z,61.00
2022-12-09T01:13:15.385Z,51.53
2022-12-09T01:15:17.512Z,48.53
2022-12-09T01:17:19.923Z,59.67
2022-12-09T01:19:21.930Z,52.57
2022-12-09T01:21:25.023Z,58.67
2022-12-09T01:23:27.291Z,38.27
2022-12-09T01:25:29.794Z,44.27
2022-12-09T01:27:32.808Z,47.93
2022-12-09T01:29:35.622Z,58.90
2022-12-09T01:31:39.044Z,56.70
2022-12-09T01:33:44.737Z,57.60
2022-12-09T01:35:46.833Z,78.00
2022-12-09T01:37:49.016Z,105.87
2022-12-09T01:39:53.724Z,133.90
2022-12-09T01:41:56.102Z,129.23
2022-12-09T01:44:16.492Z,112.40
2022-12-09T01:46:18.668Z,92.60
2022-12-09T01:48:23.973Z,73.63
2022-12-09T01:51:30.413Z,62.87
2022-12-09T01:53:37.982Z,45.63
2022-12-09T01:55:41.587Z,45.03
2022-12-09T01:57:45.656Z,38.63
2022-12-09T01:59:47.860Z,34.47
2022-12-09T02:01:54.770Z,38.40
2022-12-09T02:03:57.079Z,37.70
2022-12-09T02:06:02.093Z,34.83
2022-12-09T02:08:07.743Z,38.27
2022-12-09T02:10:14.759Z,35.30
2022-12-09T02:12:41.706Z,29.17
2022-12-09T02:15:06.691Z,30.60
2022-12-09T02:17:26.327Z,29.83
2022-12-09T02:20:01.719Z,32.87
2022-12-09T02:22:06.985Z,42.63
2022-12-09T02:24:16.471Z,40.57
2022-12-09T02:26:31.079Z,41.70
2022-12-09T02:28:57.987Z,36.97
2022-12-09T02:31:16.221Z,32.90
2022-12-09T02:33:34.057Z,33.27
2022-12-09T02:35:44.002Z,36.13
2022-12-09T02:37:52.355Z,31.93
2022-12-09T02:39:59.615Z,32.57
2022-12-09T02:42:06.725Z,40.40
2022-12-09T02:44:19.497Z,36.17
2022-12-09T02:46:22.702Z,32.07
2022-12-09T02:48:32.348Z,32.80
2022-12-09T02:50:38.217Z,36.10
2022-12-09T02:52:42.816Z,46.20
2022-12-09T02:54:46.959Z,54.27
2022-12-09T02:56:57.069Z,52.97
2022-12-09T02:59:02.651Z,47.57
2022-12-09T03:01:05.162Z,45.30
2022-12-09T03:03:11.816Z,42.67
2022-12-09T03:05:26.212Z,40.37
2022-12-09T03:07:44.672Z,43.33
2022-12-09T03:09:52.982Z,41.07
2022-12-09T03:11:59.693Z,35.17
2022-12-09T03:14:13.216Z,39.43
2022-12-09T03:16:18.428Z,37.43
2022-12-09T03:18:21.738Z,39.17
2022-12-09T03:20:28.937Z,35.63
2022-12-09T03:22:35.534Z,41.83
2022-12-09T03:24:42.678Z,35.53
2022-12-09T03:26:46.654Z,43.97
2022-12-09T03:28:51.409Z,42.70
2022-12-09T03:30:55.466Z,37.20
2022-12-09T03:32:58.829Z,41.00
2022-12-09T03:35:21.940Z,38.00
2022-12-09T03:37:24.524Z,37.57
2022-12-09T03:39:32.323Z,41.63
2022-12-09T03:41:34.915Z,39.47
2022-12-09T03:43:43.313Z,47.70
2022-12-09T03:45:46.375Z,44.37
2022-12-09T03:47:55.067Z,64.93
2022-12-09T03:49:58.730Z,51.93
2022-12-09T03:52:10.673Z,48.63
2022-12-09T03:54:35.479Z,52.63
2022-12-09T03:56:45.527Z,51.23
2022-12-09T03:58:50.436Z,48.00
2022-12-09T04:00:53.007Z,47.87
2022-12-09T04:02:55.314Z,44.70
2022-12-09T04:04:57.930Z,43.03
2022-12-09T04:07:00.508Z,51.77
2022-12-09T04:09:03.733Z,41.43
2022-12-09T04:11:06.251Z,42.80
2022-12-09T04:13:08.556Z,44.47
2022-12-09T04:15:11.019Z,43.37
2022-12-09T04:17:13.445Z,44.43
2022-12-09T04:19:15.686Z,45.77
2022-12-09T04:21:17.875Z,54.20
2022-12-09T04:23:20.343Z,52.43
2022-12-09T04:25:24.017Z,49.03
2022-12-09T04:27:26.447Z,55.57
2022-12-09T04:29:31.378Z,51.07
2022-12-09T04:31:33.585Z,49.30
2022-12-09T04:33:35.887Z,49.00
2022-12-09T04:35:37.846Z,51.97
2022-12-09T04:37:40.348Z,55.80
2022-12-09T04:39:42.666Z,50.23
2022-12-09T04:41:44.807Z,56.43
2022-12-09T04:43:49.132Z,56.83
2022-12-09T04:45:51.705Z,61.47
2022-12-09T04:47:54.161Z,59.47
2022-12-09T04:49:57.073Z,59.60
2022-12-09T04:52:00.799Z,58.30
2022-12-09T04:54:03.118Z,61.23
2022-12-09T04:56:08.481Z,52.17
2022-12-09T04:58:10.911Z,53.57
2022-12-09T05:00:14.287Z,51.20
2022-12-09T05:02:17.177Z,49.30
2022-12-09T05:04:21.637Z,52.03
2022-12-09T05:06:24.521Z,48.17
2022-12-09T05:08:31.467Z,56.77
2022-12-09T05:10:34.672Z,57.33
2022-12-09T05:12:37.187Z,55.93
2022-12-09T05:14:39.502Z,61.23
2022-12-09T05:16:41.559Z,58.40
2022-12-09T05:18:45.545Z,54.80
2022-12-09T05:20:48.322Z,57.03
2022-12-09T05:22:51.988Z,56.27
2022-12-09T05:24:54.287Z,63.53
2022-12-09T05:26:56.601Z,58.97
2022-12-09T05:28:59.015Z,57.37
2022-12-09T05:31:03.132Z,62.33
2022-12-09T05:33:06.016Z,51.93
2022-12-09T05:35:08.804Z,61.23
2022-12-09T05:37:15.453Z,67.23
2022-12-09T05:39:18.230Z,60.07
2022-12-09T05:41:20.988Z,58.63
2022-12-09T05:43:23.322Z,66.03
2022-12-09T05:45:25.679Z,63.30
2022-12-09T05:47:29.983Z,62.17
2022-12-09T05:49:32.256Z,52.70
2022-12-09T05:51:34.675Z,55.27
2022-12-09T05:53:37.354Z,49.67
2022-12-09T05:55:42.345Z,59.70
2022-12-09T05:57:45.356Z,55.53
2022-12-09T05:59:48.121Z,57.20
2022-12-09T06:01:51.123Z,57.87
2022-12-09T06:03:54.776Z,54.03
2022-12-09T06:05:57.990Z,58.70
2022-12-09T06:08:03.753Z,54.00
2022-12-09T06:10:10.224Z,61.37
2022-12-09T06:12:15.918Z,74.33
2022-12-09T06:14:18.038Z,62.20
2022-12-09T06:16:21.670Z,53.63
2022-12-09T06:18:23.926Z,59.30
2022-12-09T06:20:27.082Z,55.37
2022-12-09T06:22:29.418Z,53.07
2022-12-09T06:24:34.582Z,67.57
2022-12-09T06:26:36.912Z,69.13
2022-12-09T06:28:38.967Z,64.30
2022-12-09T06:30:41.406Z,70.40
2022-12-09T06:32:43.793Z,65.07
2022-12-09T06:34:46.425Z,74.30
2022-12-09T06:36:48.635Z,64.67
2022-12-09T06:38:52.049Z,59.83
2022-12-09T06:40:54.369Z,56.70
2022-12-09T06:42:56.538Z,54.43
2022-12-09T06:44:58.797Z,55.60
2022-12-09T06:47:01.061Z,49.73
2022-12-09T06:49:03.700Z,54.17
2022-12-09T06:51:08.871Z,48.67
2022-12-09T06:53:11.358Z,44.87
2022-12-09T06:55:14.290Z,50.47
2022-12-09T06:57:16.626Z,48.57
2022-12-09T06:59:18.905Z,44.63
2022-12-09T07:01:23.858Z,51.27
2022-12-09T07:03:28.375Z,56.83
2022-12-09T07:05:32.348Z,57.07
2022-12-09T07:07:35.138Z,53.90
2022-12-09T07:09:40.553Z,52.03
2022-12-09T07:11:43.435Z,46.40
2022-12-09T07:13:48.562Z,48.00
2022-12-09T07:15:50.961Z,46.80
2022-12-09T07:17:53.512Z,48.17
2022-12-09T07:19:57.270Z,48.03
2022-12-09T07:22:02.443Z,35.07
2022-12-09T07:24:05.282Z,38.63
2022-12-09T07:26:08.810Z,36.80
2022-12-09T07:28:11.449Z,39.63
2022-12-09T07:30:14.213Z,35.67
2022-12-09T07:32:16.471Z,37.77
2022-12-09T07:34:19.326Z,42.07
2022-12-09T07:36:25.773Z,38.40
2022-12-09T07:38:28.564Z,44.57
2022-12-09T07:40:31.007Z,47.00
2022-12-09T07:42:33.101Z,42.57
2022-12-09T07:44:39.954Z,43.30
2022-12-09T07:46:42.198Z,41.63
2022-12-09T07:48:45.065Z,48.03
2022-12-09T07:50:47.398Z,54.50
2022-12-09T07:52:49.805Z,59.83
2022-12-09T07:54:55.211Z,58.33
2022-12-09T07:56:57.890Z,72.03
2022-12-09T07:59:00.282Z,60.13
2022-12-09T08:01:12.088Z,63.17
2022-12-09T08:03:14.743Z,55.57
2022-12-09T08:05:17.710Z,59.23
2022-12-09T08:07:20.385Z,54.57
2022-12-09T08:09:23.685Z,54.77
2022-12-09T08:11:28.494Z,48.37
2022-12-09T08:13:31.079Z,49.50
2022-12-09T08:15:33.480Z,44.93
2022-12-09T08:17:35.803Z,42.00
2022-12-09T08:19:38.797Z,38.70
2022-12-09T08:21:41.566Z,41.93
2022-12-09T08:23:44.981Z,37.87
2022-12-09T08:25:53.684Z,42.60
2022-12-09T08:27:55.800Z,45.73
2022-12-09T08:29:58.480Z,43.87
2022-12-09T08:32:00.880Z,44.80
2022-12-09T08:34:08.281Z,46.93
2022-12-09T08:36:22.403Z,49.60
2022-12-09T08:38:24.602Z,42.47
2022-12-09T08:40:27.039Z,42.63
2022-12-09T08:42:30.682Z,43.93
2022-12-09T08:44:32.992Z,54.70
2022-12-09T08:46:37.233Z,45.40
2022-12-09T08:48:41.802Z,42.13
2022-12-09T08:50:44.109Z,36.77
2022-12-09T08:52:46.447Z,39.00
2022-12-09T08:54:48.886Z,35.97
2022-12-09T08:56:55.255Z,39.13
2022-12-09T08:58:58.018Z,33.53
2022-12-09T09:01:00.530Z,27.10
2022-12-09T09:03:02.963Z,28.03
2022-12-09T09:05:05.588Z,27.60
2022-12-09T09:07:09.211Z,24.80
2022-12-09T09:09:15.210Z,28.37
2022-12-09T09:11:20.690Z,28.63
2022-12-09T09:13:23.801Z,26.67
2022-12-09T09:15:25.881Z,28.03
2022-12-09T09:17:28.216Z,27.53
2022-12-09T09:19:31.844Z,29.00
2022-12-09T09:21:34.693Z,27.53
2022-12-09T09:23:37.511Z,25.83
2022-12-09T09:25:46.299Z,32.37
2022-12-09T09:27:48.494Z,29.17
2022-12-09T09:29:50.963Z,29.37
2022-12-09T09:31:57.486Z,31.20
2022-12-09T09:34:00.009Z,34.63
2022-12-09T09:36:52.802Z,34.37
2022-12-09T09:38:56.735Z,34.90
2022-12-09T09:41:00.841Z,44.27
2022-12-09T09:43:03.577Z,38.47
2022-12-09T09:45:14.600Z,38.20
2022-12-09T09:47:39.754Z,37.17
2022-12-09T09:49:55.619Z,34.40
2022-12-09T09:52:03.764Z,38.30
2022-12-09T09:54:08.904Z,40.77
2022-12-09T09:56:19.840Z,41.90
2022-12-09T09:58:39.766Z,37.87
2022-12-09T10:01:07.363Z,41.57
2022-12-09T10:03:15.005Z,36.87
2022-12-09T10:05:36.230Z,34.27
2022-12-09T10:07:41.294Z,35.93
2022-12-09T10:10:04.206Z,39.50
2022-12-09T10:12:06.715Z,39.13
2022-12-09T10:14:20.348Z,37.83
2022-12-09T10:16:44.560Z,44.37
2022-12-09T10:19:04.073Z,43.78
2022-12-09T10:21:20.260Z,42.73
2022-12-09T10:23:26.346Z,42.50
2022-12-09T10:25:31.976Z,46.10
2022-12-09T10:27:41.952Z,43.57
2022-12-09T10:29:56.941Z,43.97
2022-12-09T10:31:59.510Z,41.50
2022-12-09T10:34:02.326Z,42.37
2022-12-09T10:36:06.388Z,47.53
2022-12-09T10:38:14.841Z,41.20
2022-12-09T10:40:25.660Z,41.37
2022-12-09T10:42:47.815Z,45.03
2022-12-09T10:46:17.250Z,43.70
2022-12-09T10:48:32.458Z,45.03
2022-12-09T10:50:37.280Z,44.47
2022-12-09T10:52:44.493Z,40.90
2022-12-09T10:54:48.336Z,45.83
2022-12-09T10:57:12.665Z,39.50
2022-12-09T10:59:17.986Z,41.83
2022-12-09T11:01:20.377Z,43.40
2022-12-09T11:03:42.452Z,41.95
2022-12-09T11:05:45.013Z,44.97
2022-12-09T11:07:50.168Z,43.40
2022-12-09T11:10:17.393Z,41.50
2022-12-09T11:12:40.092Z,41.25
2022-12-09T11:14:52.530Z,36.35
2022-12-09T11:17:16.563Z,34.25
2022-12-09T11:19:28.552Z,29.67
2022-12-09T11:21:36.909Z,30.83
2022-12-09T11:23:58.804Z,29.90
2022-12-09T11:26:07.728Z,25.23
2022-12-09T11:28:16.461Z,26.90
2022-12-09T11:30:25.110Z,24.33
2022-12-09T11:32:27.736Z,24.70
2022-12-09T11:34:30.848Z,29.45
2022-12-09T11:36:43.972Z,34.95
2022-12-09T11:38:49.961Z,36.88
2022-12-09T11:41:06.208Z,32.90
2022-12-09T11:43:08.479Z,29.58
2022-12-09T11:45:26.861Z,31.05
2022-12-09T11:50:22.767Z,43.83
2022-12-09T11:52:30.489Z,44.13
2022-12-09T11:54:40.478Z,46.90
2022-12-09T11:56:43.719Z,46.63
2022-12-09T11:58:51.547Z,38.55
2022-12-09T12:00:56.456Z,39.50
2022-12-09T12:03:12.216Z,34.30
2022-12-09T12:05:38.434Z,38.28
2022-12-09T12:07:57.977Z,38.05
2022-12-09T12:10:01.651Z,42.58
2022-12-09T12:12:13.832Z,42.00
2022-12-09T12:14:27.750Z,43.10
2022-12-09T12:16:54.692Z,40.97
2022-12-09T12:19:15.649Z,38.35
2022-12-09T12:21:20.603Z,35.10
2022-12-09T12:23:48.524Z,36.00
2022-12-09T12:26:09.149Z,29.98
2022-12-09T12:28:41.857Z,28.63
2022-12-09T12:31:11.762Z,34.95
2022-12-09T12:36:07.262Z,50.03
2022-12-09T12:38:51.459Z,66.38
2022-12-09T12:41:05.720Z,77.13
2022-12-09T12:43:53.808Z,68.45
2022-12-09T12:46:20.033Z,64.45
2022-12-09T12:48:37.973Z,63.35
2022-12-09T12:50:57.991Z,56.35
2022-12-09T12:53:23.913Z,48.65
2022-12-09T12:55:32.030Z,32.78
2022-12-09T12:57:49.248Z,26.98
2022-12-09T13:00:07.466Z,28.77
2022-12-09T13:02:30.497Z,22.70
2022-12-09T13:04:52.830Z,17.38
2022-12-09T13:07:06.287Z,13.82
2022-12-09T13:09:29.341Z,13.55
2022-12-09T13:12:05.682Z,17.83
2022-12-09T13:14:14.419Z,13.32
2022-12-09T13:16:41.413Z,17.55
2022-12-09T13:18:44.850Z,16.30
2022-12-09T13:20:49.097Z,16.35
2022-12-09T13:23:05.669Z,19.30
2022-12-09T13:25:44.767Z,14.40
2022-12-09T13:28:13.126Z,16.33
2022-12-09T13:30:27.349Z,14.30
2022-12-09T13:32:56.518Z,20.88
2022-12-09T13:35:12.377Z,26.60
2022-12-09T13:37:54.799Z,28.48
2022-12-09T13:39:58.777Z,17.75
2022-12-09T13:42:19.501Z,23.02
2022-12-09T13:44:21.797Z,34.00
2022-12-09T13:46:28.635Z,44.03
2022-12-09T13:48:30.804Z,44.20
2022-12-09T13:50:49.577Z,29.70
2022-12-09T13:52:55.025Z,28.58
2022-12-09T13:54:58.000Z,30.92
2022-12-09T13:57:19.242Z,31.83
2022-12-09T13:59:30.925Z,30.63
2022-12-09T14:01:58.715Z,32.22
2022-12-09T14:04:18.822Z,53.45
2022-12-09T14:06:46.811Z,41.72
2022-12-09T14:08:53.564Z,36.20
2022-12-09T14:10:55.781Z,33.15
2022-12-09T14:12:57.730Z,23.48
2022-12-09T14:15:25.320Z,16.65
2022-12-09T14:17:27.192Z,19.42
2022-12-09T14:19:30.136Z,18.92
2022-12-09T14:21:33.635Z,42.05
2022-12-09T14:23:35.693Z,53.80
2022-12-09T14:25:37.501Z,46.33
2022-12-09T14:27:39.573Z,51.55
2022-12-09T14:29:50.910Z,67.93
2022-12-09T14:31:55.848Z,62.95
2022-12-09T14:33:57.819Z,46.97
2022-12-09T14:36:23.541Z,53.20
2022-12-09T14:39:07.991Z,39.60
2022-12-09T14:41:12.666Z,67.78
2022-12-09T14:43:33.276Z,74.07
2022-12-09T14:53:24.096Z,92.63
2022-12-09T14:55:30.065Z,111.60
2022-12-09T14:57:44.134Z,103.88
2022-12-09T14:59:51.832Z,106.65
2022-12-09T15:01:59.886Z,105.50
2022-12-09T15:04:02.156Z,84.00
2022-12-09T15:06:11.699Z,93.20
2022-12-09T15:08:32.076Z,157.32
2022-12-09T15:10:38.086Z,130.68
2022-12-09T15:12:43.170Z,126.00
2022-12-09T15:14:46.517Z,155.27
2022-12-09T15:16:50.956Z,142.63
2022-12-09T15:18:54.803Z,241.00
2022-12-09T15:21:01.680Z,230.38
2022-12-09T15:23:29.703Z,186.85
2022-12-09T15:25:34.038Z,169.68
2022-12-09T15:27:36.195Z,177.18
2022-12-09T15:29:38.076Z,173.38
2022-12-09T15:31:47.857Z,167.48
2022-12-09T15:33:53.122Z,117.90
2022-12-09T15:36:11.623Z,131.63
2022-12-09T15:38:13.747Z,140.73
2022-12-09T15:40:19.200Z,159.63
2022-12-09T15:42:27.383Z,188.55
2022-12-09T15:44:46.718Z,118.15
2022-12-09T15:46:52.033Z,132.43
2022-12-09T15:48:59.626Z,157.18
2022-12-09T15:51:07.934Z,109.57
2022-12-09T15:53:31.198Z,103.63
2022-12-09T15:55:38.037Z,181.52
2022-12-09T15:57:42.222Z,132.13
2022-12-09T15:59:55.453Z,119.45
2022-12-09T16:01:59.903Z,130.68
2022-12-09T16:04:06.553Z,175.77
2022-12-09T16:06:09.772Z,182.50
2022-12-09T16:08:12.245Z,146.43
2022-12-09T16:10:16.832Z,215.02
2022-12-09T16:12:29.008Z,197.88
2022-12-09T16:14:44.674Z,138.70
2022-12-09T16:17:01.729Z,120.40
2022-12-09T16:19:03.737Z,103.05
2022-12-09T16:21:28.005Z,125.13
2022-12-09T16:23:30.259Z,117.55
2022-12-09T16:25:38.822Z,147.85
2022-12-09T16:27:48.658Z,134.50
2022-12-09T16:29:54.310Z,154.25
2022-12-09T16:32:18.278Z,158.35
2022-12-09T16:34:22.167Z,135.10
2022-12-09T16:36:31.053Z,139.98
2022-12-09T16:38:37.264Z,112.22
2022-12-09T16:40:45.266Z,108.07
2022-12-09T16:42:49.206Z,106.15
2022-12-09T16:44:51.203Z,132.90
2022-12-09T16:47:27.944Z,124.95
2022-12-09T16:49:30.162Z,125.78
2022-12-09T16:51:34.997Z,106.55
2022-12-09T16:53:46.300Z,101.50
2022-12-09T16:55:59.970Z,126.00
2022-12-09T16:58:02.472Z,82.97
2022-12-09T17:00:05.988Z,60.80
2022-12-09T17:02:24.179Z,56.28
2022-12-09T17:04:28.968Z,67.38
2022-12-09T17:06:31.016Z,57.00
2022-12-09T17:08:33.503Z,52.25
2022-12-09T17:10:35.825Z,80.30
2022-12-09T17:12:38.090Z,80.90
2022-12-09T17:14:40.229Z,72.32
2022-12-09T17:16:42.670Z,50.13
2022-12-09T17:18:44.558Z,67.68
2022-12-09T17:20:46.673Z,145.20
2022-12-09T17:22:48.750Z,111.15
2022-12-09T17:24:50.853Z,131.35
2022-12-09T17:26:52.823Z,137.73
2022-12-09T17:29:01.270Z,120.03
2022-12-09T17:31:12.647Z,123.80
2022-12-09T17:33:14.544Z,147.70
2022-12-09T17:35:16.797Z,115.50
2022-12-09T17:37:19.205Z,84.57
2022-12-09T17:39:22.184Z,141.15
2022-12-09T17:41:24.340Z,124.88
2022-12-09T17:43:26.512Z,121.40
2022-12-09T17:45:28.503Z,92.80
2022-12-09T17:47:30.622Z,91.40
2022-12-09T17:49:33.127Z,84.97
2022-12-09T17:51:36.537Z,87.18
2022-12-09T17:53:40.322Z,92.80
2022-12-09T17:55:42.747Z,67.95
2022-12-09T17:57:47.689Z,134.80
2022-12-09T17:59:53.459Z,115.47
2022-12-09T18:01:55.750Z,105.65
2022-12-09T18:04:04.407Z,83.90
2022-12-09T18:06:09.986Z,62.05
2022-12-09T18:08:14.018Z,76.13
2022-12-09T18:10:16.273Z,53.00
2022-12-09T18:12:20.736Z,45.72
2022-12-09T18:14:23.520Z,45.10
2022-12-09T18:16:25.811Z,43.08
2022-12-09T18:18:30.696Z,35.80
2022-12-09T18:20:33.203Z,24.13
2022-12-09T18:22:35.389Z,22.70
2022-12-09T18:24:37.398Z,23.10
2022-12-09T18:26:42.273Z,21.25
2022-12-09T18:28:44.665Z,16.25
2022-12-09T18:30:47.010Z,19.33
2022-12-09T18:32:49.373Z,16.13
2022-12-09T18:34:51.506Z,14.57
2022-12-09T18:36:54.297Z,22.52
2022-12-09T18:38:59.586Z,16.45
2022-12-09T18:41:01.550Z,15.88
2022-12-09T18:43:03.791Z,16.42
2022-12-09T18:45:06.225Z,16.73
2022-12-09T18:47:08.472Z,17.13
2022-12-09T18:49:16.430Z,20.35
2022-12-09T18:51:20.893Z,12.40
2022-12-09T18:53:23.354Z,14.10
2022-12-09T18:55:25.598Z,9.55
2022-12-09T18:57:30.718Z,10.07
2022-12-09T18:59:33.696Z,12.90
2022-12-09T19:01:41.103Z,15.63
2022-12-09T19:03:43.700Z,11.90
2022-12-09T19:05:45.728Z,12.90
2022-12-09T19:07:47.921Z,10.75
2022-12-09T19:09:49.990Z,10.02
2022-12-09T19:11:53.483Z,11.45
2022-12-09T19:13:56.475Z,14.65
2022-12-09T19:16:03.324Z,10.80
2022-12-09T19:18:05.483Z,27.20
2022-12-09T19:20:08.416Z,18.98
2022-12-09T19:22:10.703Z,9.95
2022-12-09T19:24:19.071Z,14.23
2022-12-09T19:26:24.671Z,15.90
2022-12-09T19:28:26.761Z,21.63
2022-12-09T19:30:29.231Z,18.40
2022-12-09T19:32:52.343Z,25.38
2022-12-09T19:34:53.549Z,16.30
2022-12-09T19:36:58.838Z,24.27
2022-12-09T19:39:02.654Z,31.65
2022-12-09T19:41:04.989Z,30.13
2022-12-09T19:43:07.372Z,25.13
2022-12-09T19:45:13.969Z,22.83
2022-12-09T19:47:17.251Z,18.48
2022-12-09T19:49:20.969Z,11.45
2022-12-09T19:51:24.413Z,7.70
2022-12-09T19:53:26.398Z,10.35
2022-12-09T19:55:28.448Z,17.48
2022-12-09T19:57:30.644Z,24.63
2022-12-09T19:59:32.484Z,15.43
2022-12-09T20:01:39.180Z,22.30
2022-12-09T20:03:42.798Z,21.13
2022-12-09T20:05:53.391Z,15.55
2022-12-09T20:07:55.792Z,14.95
2022-12-09T20:09:57.813Z,9.98
2022-12-09T20:11:59.990Z,11.68
2022-12-09T20:14:05.453Z,7.63
2022-12-09T20:16:09.280Z,8.93
2022-12-09T20:18:14.304Z,10.57
2022-12-09T20:20:16.612Z,10.27
2022-12-09T20:22:18.659Z,11.48
2022-12-09T20:24:20.729Z,10.95
2022-12-09T20:26:25.801Z,11.55
2022-12-09T20:28:29.678Z,10.50
2022-12-09T20:30:32.507Z,13.27
2022-12-09T20:32:34.483Z,8.55
2022-12-09T20:34:36.681Z,12.43
2022-12-09T20:36:41.544Z,13.40
2022-12-09T20:38:47.225Z,10.02
2022-12-09T20:40:49.238Z,13.02
2022-12-09T20:42:51.263Z,15.07
2022-12-09T20:44:53.578Z,15.52
2022-12-09T20:46:55.415Z,8.60
2022-12-09T20:48:59.056Z,8.23
2022-12-09T20:51:07.512Z,12.88
2022-12-09T20:53:09.542Z,13.45
2022-12-09T20:55:12.755Z,14.90
2022-12-09T20:57:14.657Z,8.50
2022-12-09T20:59:16.664Z,10.32
2022-12-09T21:01:21.532Z,8.80
2022-12-09T21:03:24.004Z,10.55
2022-12-09T21:05:26.257Z,12.93
2022-12-09T21:07:28.436Z,14.63
2022-12-09T21:09:30.725Z,19.08
2022-12-09T21:11:32.781Z,13.13
2022-12-09T21:13:40.280Z,18.92
2022-12-09T21:15:42.213Z,14.70
2022-12-09T21:17:46.808Z,13.30
2022-12-09T21:19:49.098Z,11.75
2022-12-09T21:21:54.657Z,26.27
2022-12-09T21:23:59.421Z,30.45
2022-12-09T21:26:07.598Z,73.63
2022-12-09T21:28:09.462Z,82.57
2022-12-09T21:30:12.697Z,82.50
2022-12-09T21:32:14.825Z,89.82
2022-12-09T21:34:17.811Z,96.07
2022-12-09T21:36:22.537Z,69.50
2022-12-09T21:38:24.630Z,59.05
2022-12-09T21:40:27.159Z,94.95
2022-12-09T21:42:29.194Z,64.07
2022-12-09T21:44:31.223Z,136.93
2022-12-09T21:46:36.273Z,111.22
2022-12-09T21:48:39.169Z,92.32
2022-12-09T21:50:41.257Z,69.10
2022-12-09T21:52:44.276Z,28.52
2022-12-09T21:54:52.303Z,27.45
2022-12-09T21:56:57.209Z,27.95
2022-12-09T21:59:00.142Z,23.98
2022-12-09T22:01:09.517Z,32.83
2022-12-09T22:03:11.526Z,18.30
2022-12-09T22:05:13.615Z,12.82
2022-12-09T22:07:15.645Z,15.82
2022-12-09T22:09:20.855Z,39.00
2022-12-09T22:11:25.800Z,55.08
2022-12-09T22:13:28.291Z,25.75
2022-12-09T22:15:31.143Z,24.65
2022-12-09T22:17:33.393Z,45.15
2022-12-09T22:19:35.453Z,21.75
2022-12-09T22:21:37.428Z,21.38
2022-12-09T22:23:39.568Z,20.35
2022-12-09T22:25:41.771Z,28.50
2022-12-09T22:27:43.754Z,52.13
2022-12-09T22:29:45.766Z,44.00
2022-12-09T22:31:48.041Z,34.83
2022-12-09T22:33:52.042Z,26.08
2022-12-09T22:35:54.409Z,29.10
2022-12-09T22:37:59.255Z,36.90
2022-12-09T22:40:01.297Z,28.85
2022-12-09T22:42:03.819Z,29.90
2022-12-09T22:44:06.118Z,30.10
2022-12-09T22:46:14.883Z,24.33
2022-12-09T22:48:16.858Z,27.15
2022-12-09T22:50:19.091Z,20.42
2022-12-09T22:52:23.141Z,21.75
2022-12-09T22:54:25.382Z,41.15
2022-12-09T22:56:28.164Z,30.98
2022-12-09T22:58:30.443Z,42.25
2022-12-09T23:00:32.540Z,28.83
2022-12-09T23:02:35.255Z,27.65
2022-12-09T23:04:37.747Z,34.00
2022-12-09T23:06:40.947Z,53.45
2022-12-09T23:08:43.966Z,30.27
2022-12-09T23:10:45.935Z,22.80
2022-12-09T23:12:47.906Z,27.52
2022-12-09T23:14:49.887Z,25.63
2022-12-09T23:16:52.236Z,26.50
2022-12-09T23:18:56.371Z,19.00
2022-12-09T23:21:07.920Z,16.02
2022-12-09T23:23:09.930Z,10.77
2022-12-09T23:25:12.154Z,32.33
2022-12-09T23:27:14.216Z,33.58
2022-12-09T23:29:16.442Z,24.13
2022-12-09T23:31:20.721Z,14.30
2022-12-09T23:33:22.721Z,23.45
2022-12-09T23:35:24.940Z,40.25
2022-12-09T23:37:26.920Z,32.80
2022-12-09T23:39:28.900Z,27.50
2022-12-09T23:41:31.509Z,29.92
2022-12-09T23:43:35.400Z,19.83
2022-12-09T23:45:37.497Z,13.80
2022-12-09T23:47:42.534Z,14.45
2022-12-09T23:49:44.682Z,24.08
2022-12-09T23:51:46.646Z,23.25
2022-12-09T23:53:50.645Z,25.83
2022-12-09T23:55:52.681Z,12.95
2022-12-09T23:57:55.021Z,15.43
2022-12-09T23:59:57.278Z,10.02
